| time (UTC) | temp F | wind direction | speed knots | gust knots | rain 1hr in | rain 24hr in | rain mn in | humidity % | barometer mb |
| 20260906234908 | 62 | 34 | 0.0 | 0.0 | 0.00 | 0.00 | 0.00 | 79 | 963.1 |
| 20260906234407 | 62 | 17 | 0.0 | 0.9 | 0.00 | 0.00 | 0.00 | 79 | 963.1 |
| 20260906233903 | 62 | 94 | 1.7 | 1.7 | 0.00 | 0.00 | 0.00 | 78 | 963.2 |
| 20260906233401 | 62 | 40 | 0.9 | 0.9 | 0.00 | 0.00 | 0.00 | 78 | 963.2 |
| 20260906232856 | 63 | 83 | 0.0 | 0.9 | 0.00 | 0.00 | 0.00 | 78 | 963.2 |
| 20260906232355 | 63 | 105 | 0.0 | 0.0 | 0.00 | 0.00 | 0.00 | 78 | 963.4 |
| 20260906231850 | 64 | 18 | 0.0 | 0.0 | 0.00 | 0.00 | 0.00 | 77 | 963.2 |
| 20260906231346 | 63 | 100 | 0.9 | 0.9 | 0.00 | 0.00 | 0.00 | 78 | 963.4 |
| 20260906230845 | 63 | 2 | 0.0 | 0.0 | 0.00 | 0.00 | 0.00 | 80 | 963.3 |
| 20260906230340 | 63 | 23 | 0.0 | 0.0 | 0.00 | 0.00 | 0.00 | 81 | 963.4 |
| 20260906225833 | 62 | 44 | 0.0 | 0.0 | 0.00 | 0.00 | 0.00 | 83 | 963.5 |
| 20260906225328 | 62 | 26 | 0.0 | 0.9 | 0.00 | 0.00 | 0.00 | 84 | 963.5 |
| 20260906224823 | 61 | 32 | 0.0 | 0.0 | 0.00 | 0.00 | 0.00 | 86 | 963.5 |
| 20260906224314 | 60 | 0 | 0.0 | 0.0 | 0.00 | 0.00 | 0.00 | 85 | 963.7 |
| 20260906223810 | 60 | 33 | 0.0 | 0.0 | 0.00 | 0.00 | 0.00 | 86 | 963.7 |
| 20260906223306 | 60 | 34 | 0.0 | 0.0 | 0.00 | 0.00 | 0.00 | 86 | 963.9 |
| 20260906222804 | 60 | 28 | 0.0 | 0.9 | 0.00 | 0.00 | 0.00 | 87 | 963.8 |
| 20260906222306 | 60 | 104 | 0.0 | 0.0 | 0.00 | 0.00 | 0.00 | 87 | 963.7 |
| 20260906221801 | 60 | 77 | 0.0 | 0.0 | 0.00 | 0.00 | 0.00 | 88 | 963.6 |
| 20260906221255 | 60 | 51 | 1.7 | 1.7 | 0.00 | 0.00 | 0.00 | 88 | 963.7 |
| 20260906220751 | 60 | 21 | 0.0 | 0.9 | 0.00 | 0.00 | 0.00 | 89 | 963.9 |
| 20260906220246 | 59 | 20 | 0.0 | 0.0 | 0.00 | 0.00 | 0.00 | 89 | 963.8 |
| 20260906215745 | 59 | 17 | 0.0 | 0.0 | 0.00 | 0.00 | 0.00 | 89 | 963.6 |
| 20260906215244 | 59 | 57 | 0.0 | 0.0 | 0.00 | 0.00 | 0.00 | 89 | 963.9 |
| 20260906214742 | 59 | 55 | 0.0 | 0.0 | 0.00 | 0.00 | 0.00 | 90 | 963.9 |
| 20260906214233 | 59 | 28 | 0.0 | 0.0 | 0.00 | 0.00 | 0.00 | 91 | 964.1 |
| 20260906213731 | 59 | 27 | 0.0 | 0.0 | 0.00 | 0.00 | 0.00 | 92 | 963.8 |
| 20260906213226 | 59 | 29 | 0.0 | 0.9 | 0.00 | 0.00 | 0.00 | 94 | 963.8 |
| 20260906212722 | 58 | 30 | 0.0 | 0.0 | 0.00 | 0.00 | 0.00 | 94 | 963.9 |
| 20260906212218 | 58 | 50 | 0.0 | 0.9 | 0.00 | 0.00 | 0.00 | 94 | 964.1 |
| 20260906211713 | 58 | 36 | 0.0 | 0.0 | 0.00 | 0.00 | 0.00 | 93 | 963.9 |
| 20260906211209 | 59 | 31 | 0.9 | 0.9 | 0.00 | 0.00 | 0.00 | 92 | 963.8 |
| 20260906210704 | 59 | 8 | 0.9 | 0.9 | 0.00 | 0.00 | 0.00 | 91 | 964.0 |
| 20260906210203 | 60 | 61 | 0.0 | 0.9 | 0.00 | 0.00 | 0.00 | 88 | 964.0 |
| 20260906205658 | 60 | 28 | 0.0 | 0.0 | 0.00 | 0.00 | 0.00 | 87 | 964.1 |
| 20260906205154 | 60 | 29 | 0.0 | 0.0 | 0.00 | 0.00 | 0.00 | 86 | 964.0 |
| 20260906204649 | 60 | 17 | 0.9 | 0.9 | 0.00 | 0.00 | 0.00 | 86 | 964.1 |
| 20260906204149 | 60 | 75 | 0.0 | 0.0 | 0.00 | 0.00 | 0.00 | 86 | 964.1 |
| 20260906203648 | 60 | 27 | 0.0 | 0.0 | 0.00 | 0.00 | 0.00 | 86 | 964.1 |
| 20260906203143 | 60 | 68 | 0.0 | 0.9 | 0.00 | 0.00 | 0.00 | 85 | 964.2 |
| 20260906202641 | 60 | 34 | 0.0 | 0.0 | 0.00 | 0.00 | 0.00 | 85 | 964.2 |
| 20260906202139 | 60 | 62 | 0.9 | 1.7 | 0.00 | 0.00 | 0.00 | 84 | 964.3 |
| 20260906201635 | 60 | 49 | 0.0 | 0.0 | 0.00 | 0.00 | 0.00 | 84 | 964.3 |
| 20260906201133 | 60 | 30 | 0.0 | 0.0 | 0.00 | 0.00 | 0.00 | 84 | 964.3 |
| 20260906200630 | 60 | 68 | 0.0 | 0.0 | 0.00 | 0.00 | 0.00 | 83 | 964.3 |
| 20260906200126 | 60 | 45 | 0.0 | 0.0 | 0.00 | 0.00 | 0.00 | 83 | 964.1 |
| 20260906195621 | 60 | 30 | 0.0 | 0.0 | 0.00 | 0.00 | 0.00 | 83 | 964.3 |
| 20260906195118 | 60 | 68 | 0.0 | 0.0 | 0.00 | 0.00 | 0.00 | 82 | 964.4 |
| 20260906194614 | 60 | 31 | 0.0 | 0.0 | 0.00 | 0.00 | 0.00 | 83 | 964.3 |
| 20260906194108 | 60 | 55 | 0.9 | 0.9 | 0.00 | 0.00 | 0.00 | 81 | 964.5 |
| 20260906193603 | 60 | 52 | 0.0 | 0.0 | 0.00 | 0.00 | 0.00 | 81 | 964.5 |
| 20260906193058 | 60 | 33 | 0.0 | 0.9 | 0.00 | 0.00 | 0.00 | 81 | 964.5 |
| 20260906192554 | 60 | 124 | 0.9 | 0.9 | 0.00 | 0.00 | 0.00 | 81 | 964.4 |
| 20260906192053 | 60 | 348 | 0.0 | 0.9 | 0.00 | 0.00 | 0.00 | 81 | 964.4 |
| 20260906191548 | 60 | 31 | 0.0 | 0.0 | 0.00 | 0.00 | 0.00 | 82 | 964.7 |
| 20260906191047 | 60 | 36 | 0.0 | 0.0 | 0.00 | 0.00 | 0.00 | 81 | 964.6 |
| 20260906190546 | 60 | 79 | 1.7 | 2.6 | 0.00 | 0.00 | 0.00 | 81 | 964.7 |
| 20260906190041 | 60 | 39 | 0.0 | 0.0 | 0.00 | 0.00 | 0.00 | 82 | 964.6 |
| 20260906185541 | 60 | 21 | 0.0 | 0.9 | 0.00 | 0.00 | 0.00 | 82 | 964.8 |
| 20260906185040 | 60 | 88 | 0.0 | 0.9 | 0.00 | 0.00 | 0.00 | 82 | 964.6 |
| 20260906184535 | 60 | 5 | 0.0 | 0.0 | 0.00 | 0.00 | 0.00 | 82 | 964.9 |
| 20260906184030 | 61 | 58 | 0.0 | 0.9 | 0.00 | 0.00 | 0.00 | 81 | 964.7 |
| 20260906183527 | 60 | 56 | 0.0 | 0.0 | 0.00 | 0.00 | 0.00 | 81 | 964.8 |
| 20260906183022 | 60 | 166 | 0.0 | 0.0 | 0.00 | 0.00 | 0.00 | 82 | 964.8 |
| 20260906182517 | 60 | 114 | 0.9 | 1.7 | 0.00 | 0.00 | 0.00 | 82 | 964.8 |
| 20260906182013 | 59 | 38 | 0.0 | 0.9 | 0.00 | 0.00 | 0.00 | 82 | 964.8 |
| 20260906181508 | 59 | 70 | 0.0 | 0.0 | 0.00 | 0.00 | 0.00 | 83 | 964.8 |
| 20260906181004 | 59 | 18 | 0.9 | 0.9 | 0.00 | 0.00 | 0.00 | 82 | 964.8 |
| 20260906180459 | 60 | 28 | 0.0 | 0.9 | 0.00 | 0.00 | 0.00 | 82 | 965.0 |
| 20260906175956 | 60 | 22 | 0.9 | 0.9 | 0.00 | 0.00 | 0.00 | 82 | 964.9 |
| 20260906175451 | 60 | 53 | 0.0 | 0.9 | 0.00 | 0.00 | 0.00 | 81 | 965.0 |
| 20260906174949 | 60 | 31 | 0.0 | 0.0 | 0.00 | 0.00 | 0.00 | 82 | 964.9 |
| 20260906174443 | 60 | 26 | 0.9 | 0.9 | 0.00 | 0.00 | 0.00 | 81 | 964.9 |
| 20260906173939 | 61 | 18 | 0.0 | 0.0 | 0.00 | 0.00 | 0.00 | 82 | 965.1 |
| 20260906173434 | 61 | 15 | 0.0 | 0.9 | 0.00 | 0.00 | 0.00 | 80 | 964.8 |
| 20260906172933 | 62 | 28 | 0.9 | 0.9 | 0.00 | 0.00 | 0.00 | 80 | 965.0 |
| 20260906172430 | 61 | 32 | 0.0 | 0.9 | 0.00 | 0.00 | 0.00 | 79 | 964.9 |
| 20260906171925 | 62 | 13 | 0.0 | 0.9 | 0.00 | 0.00 | 0.00 | 79 | 964.9 |
| 20260906171419 | 62 | 31 | 0.0 | 0.0 | 0.00 | 0.00 | 0.00 | 78 | 964.9 |
| 20260906170915 | 62 | 91 | 1.7 | 1.7 | 0.00 | 0.00 | 0.00 | 77 | 964.6 |
| 20260906170411 | 61 | 31 | 0.0 | 0.0 | 0.00 | 0.00 | 0.00 | 79 | 964.8 |
| 20260906165908 | 60 | 62 | 0.0 | 0.0 | 0.00 | 0.00 | 0.00 | 82 | 964.8 |
| 20260906165407 | 60 | 196 | 2.6 | 2.6 | 0.00 | 0.00 | 0.00 | 81 | 964.9 |
| 20260906164902 | 59 | 135 | 0.9 | 1.7 | 0.00 | 0.00 | 0.00 | 82 | 964.8 |
| 20260906164401 | 60 | 40 | 1.7 | 2.6 | 0.00 | 0.00 | 0.00 | 83 | 964.9 |
| 20260906163857 | 60 | 18 | 2.6 | 4.3 | 0.00 | 0.00 | 0.00 | 82 | 965.1 |
| 20260906163353 | 60 | 32 | 0.0 | 0.0 | 0.00 | 0.00 | 0.00 | 84 | 965.0 |
| 20260906162850 | 59 | 93 | 0.0 | 0.0 | 0.00 | 0.00 | 0.00 | 84 | 965.2 |
| 20260906162348 | 59 | 50 | 0.0 | 0.9 | 0.00 | 0.00 | 0.00 | 85 | 965.2 |
| 20260906161839 | 59 | 51 | 0.0 | 0.0 | 0.00 | 0.00 | 0.00 | 86 | 965.1 |
| 20260906161338 | 58 | 353 | 0.0 | 0.9 | 0.00 | 0.00 | 0.00 | 86 | 965.2 |
| 20260906160837 | 58 | 22 | 0.0 | 0.0 | 0.00 | 0.00 | 0.00 | 87 | 965.2 |
| 20260906160331 | 58 | 53 | 0.0 | 0.9 | 0.00 | 0.00 | 0.00 | 87 | 965.2 |
| 20260906155829 | 59 | 36 | 0.0 | 0.0 | 0.00 | 0.00 | 0.00 | 88 | 965.1 |
| 20260906155324 | 58 | 25 | 0.0 | 0.0 | 0.00 | 0.00 | 0.00 | 88 | 965.2 |
| 20260906154820 | 58 | 20 | 0.0 | 0.0 | 0.00 | 0.00 | 0.00 | 88 | 965.2 |
| 20260906154314 | 58 | 61 | 0.0 | 0.0 | 0.00 | 0.00 | 0.00 | 89 | 965.2 |
| 20260906153813 | 58 | 36 | 0.0 | 0.0 | 0.00 | 0.00 | 0.00 | 89 | 965.0 |
| 20260906153312 | 58 | 61 | 0.9 | 0.9 | 0.00 | 0.00 | 0.00 | 88 | 965.2 |
| 20260906152808 | 58 | 77 | 0.0 | 0.9 | 0.00 | 0.00 | 0.00 | 89 | 965.4 |
| 20260906152306 | 57 | 26 | 0.0 | 0.0 | 0.00 | 0.00 | 0.00 | 90 | 965.4 |
| 20260906151802 | 57 | 29 | 0.0 | 0.0 | 0.00 | 0.00 | 0.00 | 91 | 965.3 |
| 20260906151258 | 57 | 49 | 0.0 | 0.0 | 0.00 | 0.00 | 0.00 | 91 | 965.5 |
| 20260906150753 | 57 | 47 | 0.0 | 0.0 | 0.00 | 0.00 | 0.00 | 92 | 965.3 |
| 20260906150249 | 56 | 27 | 0.0 | 0.0 | 0.00 | 0.00 | 0.00 | 94 | 965.6 |
| 20260906145747 | 55 | 35 | 0.0 | 0.0 | 0.00 | 0.00 | 0.00 | 94 | 965.7 |
| 20260906145246 | 55 | 39 | 0.0 | 0.0 | 0.00 | 0.00 | 0.00 | 94 | 965.6 |
| 20260906144742 | 55 | 60 | 0.9 | 1.7 | 0.00 | 0.00 | 0.00 | 95 | 965.7 |
| 20260906144236 | 55 | 35 | 0.0 | 0.0 | 0.00 | 0.00 | 0.00 | 96 | 965.7 |
| 20260906143736 | 55 | 31 | 0.0 | 0.0 | 0.00 | 0.00 | 0.00 | 96 | 965.7 |
| 20260906143233 | 55 | 29 | 0.0 | 0.0 | 0.00 | 0.00 | 0.00 | 96 | 965.7 |
| 20260906142732 | 55 | 40 | 0.0 | 0.0 | 0.00 | 0.00 | 0.00 | 97 | 965.7 |
| 20260906142228 | 54 | 34 | 0.0 | 0.0 | 0.00 | 0.00 | 0.00 | 97 | 965.6 |
| 20260906141726 | 54 | 60 | 0.0 | 0.0 | 0.00 | 0.00 | 0.00 | 98 | 965.7 |
| 20260906141222 | 54 | 28 | 0.0 | 0.0 | 0.00 | 0.00 | 0.00 | 98 | 965.7 |
| 20260906140721 | 54 | 26 | 0.0 | 0.0 | 0.00 | 0.00 | 0.00 | 98 | 965.9 |
| 20260906140216 | 54 | 61 | 0.0 | 0.0 | 0.00 | 0.00 | 0.00 | 98 | 965.9 |
| 20260906135713 | 54 | 25 | 0.0 | 0.0 | 0.00 | 0.00 | 0.00 | 98 | 965.8 |
| 20260906135209 | 54 | 28 | 0.0 | 0.0 | 0.00 | 0.00 | 0.00 | 98 | 965.7 |
| 20260906134704 | 54 | 28 | 0.0 | 0.0 | 0.00 | 0.00 | 0.00 | 98 | 965.8 |
| 20260906134159 | 54 | 21 | 0.0 | 0.0 | 0.00 | 0.00 | 0.00 | 98 | 965.8 |
| 20260906133655 | 54 | 27 | 0.0 | 0.0 | 0.00 | 0.00 | 0.00 | 98 | 965.7 |
| 20260906133150 | 54 | 16 | 0.0 | 0.0 | 0.00 | 0.00 | 0.00 | 98 | 966.0 |
| 20260906132645 | 54 | 38 | 0.0 | 0.0 | 0.00 | 0.00 | 0.00 | 98 | 966.0 |
| 20260906132141 | 53 | 27 | 0.0 | 0.0 | 0.00 | 0.00 | 0.00 | 98 | 966.0 |
| 20260906131636 | 53 | 40 | 0.0 | 0.0 | 0.00 | 0.00 | 0.00 | 98 | 966.3 |
| 20260906131131 | 53 | 25 | 0.0 | 0.0 | 0.00 | 0.00 | 0.00 | 98 | 966.3 |
| 20260906130626 | 53 | 41 | 0.0 | 0.0 | 0.00 | 0.00 | 0.00 | 98 | 966.4 |
| 20260906130121 | 53 | 32 | 0.0 | 0.0 | 0.00 | 0.00 | 0.00 | 98 | 966.3 |
| 20260906125613 | 53 | 34 | 0.0 | 0.0 | 0.00 | 0.00 | 0.00 | 98 | 966.4 |
| 20260906125112 | 53 | 33 | 0.0 | 0.0 | 0.00 | 0.00 | 0.00 | 98 | 966.2 |
| 20260906124608 | 53 | 41 | 0.0 | 0.0 | 0.00 | 0.00 | 0.00 | 98 | 966.2 |
| 20260906124103 | 53 | 22 | 0.0 | 0.0 | 0.00 | 0.00 | 0.00 | 98 | 966.1 |
| 20260906123602 | 53 | 25 | 0.0 | 0.0 | 0.00 | 0.00 | 0.00 | 98 | 966.1 |
| 20260906123057 | 53 | 28 | 0.0 | 0.0 | 0.00 | 0.00 | 0.00 | 98 | 965.7 |
| 20260906122556 | 53 | 28 | 0.0 | 0.0 | 0.00 | 0.00 | 0.00 | 98 | 965.8 |
| 20260906122052 | 53 | 28 | 0.0 | 0.0 | 0.00 | 0.00 | 0.00 | 98 | 966.0 |
| 20260906121548 | 53 | 30 | 0.0 | 0.0 | 0.00 | 0.00 | 0.00 | 98 | 966.2 |
| 20260906121045 | 53 | 33 | 0.0 | 0.0 | 0.00 | 0.00 | 0.00 | 98 | 966.0 |
| 20260906120540 | 53 | 34 | 0.0 | 0.0 | 0.00 | 0.00 | 0.00 | 98 | 965.8 |
| 20260906120037 | 53 | 30 | 0.0 | 0.0 | 0.00 | 0.00 | 0.00 | 98 | 965.8 |
| 20260906115537 | 53 | 30 | 0.0 | 0.0 | 0.00 | 0.00 | 0.00 | 98 | 965.9 |
| 20260906115032 | 53 | 23 | 0.0 | 0.0 | 0.00 | 0.00 | 0.00 | 98 | 965.9 |
| 20260906114526 | 53 | 26 | 0.0 | 0.0 | 0.00 | 0.00 | 0.00 | 98 | 965.9 |
| 20260906114022 | 53 | 24 | 0.0 | 0.0 | 0.00 | 0.00 | 0.00 | 98 | 965.9 |
| 20260906113520 | 53 | 30 | 0.0 | 0.0 | 0.00 | 0.00 | 0.00 | 98 | 965.9 |
| 20260906113016 | 53 | 28 | 0.0 | 0.0 | 0.00 | 0.00 | 0.00 | 98 | 965.9 |
| 20260906112511 | 53 | 25 | 0.0 | 0.0 | 0.00 | 0.00 | 0.00 | 98 | 966.1 |
| 20260906112007 | 53 | 17 | 0.0 | 0.0 | 0.00 | 0.00 | 0.00 | 98 | 966.3 |
| 20260906111501 | 53 | 35 | 0.0 | 0.0 | 0.00 | 0.00 | 0.00 | 98 | 966.2 |
| 20260906110956 | 53 | 21 | 0.0 | 0.0 | 0.00 | 0.00 | 0.00 | 99 | 966.3 |
| 20260906110450 | 53 | 36 | 0.0 | 0.0 | 0.00 | 0.00 | 0.00 | 99 | 966.4 |
| 20260906105949 | 53 | 24 | 0.0 | 0.0 | 0.00 | 0.00 | 0.00 | 99 | 966.5 |
| 20260906105445 | 53 | 19 | 0.0 | 0.0 | 0.00 | 0.00 | 0.00 | 99 | 966.4 |
| 20260906104942 | 53 | 29 | 0.0 | 0.0 | 0.00 | 0.00 | 0.00 | 99 | 966.7 |
| 20260906104440 | 53 | 33 | 0.0 | 0.0 | 0.00 | 0.00 | 0.00 | 99 | 966.7 |
| 20260906103939 | 53 | 28 | 0.0 | 0.0 | 0.00 | 0.00 | 0.00 | 99 | 966.5 |
| 20260906103437 | 53 | 33 | 0.0 | 0.0 | 0.00 | 0.00 | 0.00 | 99 | 966.7 |
| 20260906102933 | 53 | 32 | 0.0 | 0.0 | 0.00 | 0.00 | 0.00 | 99 | 966.6 |
| 20260906102433 | 53 | 42 | 0.0 | 0.0 | 0.00 | 0.00 | 0.00 | 98 | 966.7 |
| 20260906101927 | 53 | 30 | 0.0 | 0.0 | 0.00 | 0.00 | 0.00 | 98 | 966.8 |
| 20260906101423 | 53 | 34 | 0.0 | 0.0 | 0.00 | 0.00 | 0.00 | 98 | 966.7 |
| 20260906100918 | 53 | 41 | 0.0 | 0.0 | 0.00 | 0.00 | 0.00 | 98 | 966.9 |
| 20260906100418 | 53 | 41 | 0.0 | 0.0 | 0.00 | 0.00 | 0.00 | 98 | 966.7 |
| 20260906095912 | 53 | 29 | 0.0 | 0.0 | 0.00 | 0.00 | 0.00 | 98 | 966.6 |
| 20260906095408 | 53 | 41 | 0.0 | 0.0 | 0.00 | 0.00 | 0.00 | 98 | 966.7 |
| 20260906094908 | 53 | 25 | 0.0 | 0.0 | 0.00 | 0.00 | 0.00 | 98 | 966.8 |
| 20260906094403 | 53 | 40 | 0.0 | 0.0 | 0.00 | 0.00 | 0.00 | 98 | 966.8 |
| 20260906093859 | 53 | 28 | 0.0 | 0.0 | 0.00 | 0.00 | 0.00 | 97 | 966.8 |
| 20260906093355 | 53 | 30 | 0.0 | 0.0 | 0.00 | 0.00 | 0.00 | 97 | 967.0 |
| 20260906092849 | 53 | 29 | 0.0 | 0.0 | 0.00 | 0.00 | 0.00 | 97 | 967.0 |
| 20260906092344 | 53 | 19 | 0.0 | 0.0 | 0.00 | 0.00 | 0.00 | 97 | 967.0 |
| 20260906091839 | 53 | 26 | 0.0 | 0.0 | 0.00 | 0.00 | 0.00 | 96 | 966.9 |
| 20260906091335 | 53 | 28 | 0.0 | 0.0 | 0.00 | 0.00 | 0.00 | 96 | 966.8 |
| 20260906090832 | 53 | 23 | 0.0 | 0.0 | 0.00 | 0.00 | 0.00 | 96 | 967.1 |
| 20260906090331 | 53 | 30 | 0.0 | 0.0 | 0.00 | 0.00 | 0.00 | 96 | 967.0 |
| 20260906085830 | 53 | 16 | 0.0 | 0.0 | 0.00 | 0.00 | 0.00 | 96 | 967.3 |
| 20260906085324 | 53 | 22 | 0.0 | 0.0 | 0.00 | 0.00 | 0.00 | 96 | 967.3 |
| 20260906084819 | 53 | 15 | 0.0 | 0.0 | 0.00 | 0.00 | 0.00 | 96 | 967.1 |
| 20260906084318 | 53 | 26 | 0.0 | 0.0 | 0.00 | 0.00 | 0.00 | 96 | 967.6 |
| 20260906083813 | 53 | 37 | 0.0 | 0.0 | 0.00 | 0.00 | 0.00 | 96 | 967.5 |
| 20260906083309 | 53 | 25 | 0.0 | 0.0 | 0.00 | 0.00 | 0.00 | 95 | 967.5 |
| 20260906082803 | 53 | 22 | 0.0 | 0.0 | 0.00 | 0.00 | 0.00 | 95 | 967.2 |
| 20260906082258 | 53 | 23 | 0.0 | 0.0 | 0.00 | 0.00 | 0.00 | 95 | 967.6 |
| 20260906081754 | 53 | 29 | 0.0 | 0.0 | 0.00 | 0.00 | 0.00 | 95 | 967.3 |
| 20260906081250 | 53 | 24 | 0.0 | 0.0 | 0.00 | 0.00 | 0.00 | 95 | 967.3 |
| 20260906080745 | 53 | 22 | 0.0 | 0.0 | 0.00 | 0.00 | 0.00 | 95 | 967.5 |
| 20260906080241 | 53 | 27 | 0.0 | 0.0 | 0.00 | 0.00 | 0.00 | 95 | 967.5 |
| 20260906075735 | 53 | 25 | 0.0 | 0.0 | 0.00 | 0.00 | 0.00 | 95 | 967.6 |
| 20260906075230 | 53 | 24 | 0.0 | 0.0 | 0.00 | 0.00 | 0.00 | 95 | 967.5 |
| 20260906074725 | 53 | 24 | 0.0 | 0.0 | 0.00 | 0.00 | 0.00 | 95 | 967.3 |
| 20260906074224 | 53 | 29 | 0.0 | 0.0 | 0.00 | 0.00 | 0.00 | 95 | 967.5 |
| 20260906073719 | 53 | 39 | 0.0 | 0.0 | 0.00 | 0.00 | 0.00 | 95 | 967.5 |
| 20260906073214 | 53 | 25 | 0.0 | 0.0 | 0.00 | 0.00 | 0.00 | 95 | 967.5 |
| 20260906072709 | 53 | 18 | 0.0 | 0.0 | 0.00 | 0.00 | 0.00 | 94 | 967.5 |
| 20260906072205 | 53 | 31 | 0.0 | 0.0 | 0.00 | 0.00 | 0.00 | 94 | 967.8 |
| 20260906071701 | 53 | 28 | 0.0 | 0.0 | 0.00 | 0.00 | 0.00 | 94 | 967.8 |
| 20260906071201 | 53 | 30 | 0.0 | 0.0 | 0.00 | 0.00 | 0.00 | 94 | 967.8 |
| 20260906070657 | 53 | 24 | 0.0 | 0.0 | 0.00 | 0.00 | 0.00 | 94 | 967.8 |
| 20260906070153 | 53 | 25 | 0.0 | 0.0 | 0.00 | 0.00 | 0.00 | 94 | 967.8 |
| 20260906065652 | 53 | 22 | 0.0 | 0.0 | 0.00 | 0.00 | 0.00 | 94 | 967.8 |
| 20260906065148 | 53 | 39 | 0.0 | 0.0 | 0.00 | 0.00 | 0.00 | 94 | 967.7 |
| 20260906064643 | 53 | 27 | 0.0 | 0.0 | 0.00 | 0.00 | 0.00 | 94 | 967.9 |
| 20260906064138 | 53 | 26 | 0.9 | 1.7 | 0.00 | 0.00 | 0.00 | 94 | 967.9 |
| 20260906063633 | 53 | 24 | 0.0 | 0.0 | 0.00 | 0.00 | 0.00 | 94 | 967.9 |
| 20260906063129 | 53 | 32 | 0.0 | 0.0 | 0.00 | 0.00 | 0.00 | 94 | 967.8 |
| 20260906062625 | 53 | 30 | 0.0 | 0.0 | 0.00 | 0.00 | 0.00 | 93 | 967.7 |
| 20260906062123 | 53 | 29 | 0.0 | 0.0 | 0.00 | 0.00 | 0.00 | 93 | 967.7 |
| 20260906061620 | 53 | 18 | 0.0 | 0.0 | 0.00 | 0.00 | 0.00 | 93 | 967.9 |
| 20260906061119 | 53 | 29 | 0.0 | 0.0 | 0.00 | 0.00 | 0.00 | 93 | 967.9 |
| 20260906060616 | 53 | 21 | 0.0 | 0.9 | 0.00 | 0.00 | 0.00 | 93 | 967.9 |
| 20260906060108 | 53 | 28 | 0.0 | 0.0 | 0.00 | 0.00 | 0.00 | 93 | 967.8 |
| 20260906055603 | 53 | 57 | 0.0 | 0.0 | 0.00 | 0.02 | 0.02 | 93 | 968.0 |
| 20260906055059 | 53 | 21 | 0.0 | 0.0 | 0.00 | 0.02 | 0.02 | 93 | 967.9 |
| 20260906054558 | 53 | 33 | 0.0 | 0.0 | 0.00 | 0.02 | 0.02 | 93 | 967.9 |
| 20260906054054 | 53 | 31 | 0.0 | 0.0 | 0.00 | 0.02 | 0.02 | 93 | 967.8 |
| 20260906053550 | 53 | 5 | 0.0 | 0.0 | 0.00 | 0.02 | 0.02 | 93 | 967.8 |
| 20260906053045 | 53 | 14 | 0.0 | 0.9 | 0.00 | 0.02 | 0.02 | 93 | 967.8 |
| 20260906052541 | 53 | 25 | 0.0 | 0.0 | 0.00 | 0.02 | 0.02 | 93 | 967.9 |
| 20260906052038 | 53 | 29 | 0.0 | 0.0 | 0.00 | 0.02 | 0.02 | 93 | 968.0 |
| 20260906051533 | 53 | 29 | 0.0 | 0.9 | 0.00 | 0.02 | 0.02 | 93 | 968.0 |
| 20260906051028 | 53 | 13 | 0.0 | 0.9 | 0.00 | 0.02 | 0.02 | 93 | 967.8 |
| 20260906050524 | 53 | 26 | 0.0 | 0.0 | 0.00 | 0.02 | 0.02 | 93 | 967.8 |
| 20260906050018 | 53 | 15 | 0.0 | 0.0 | 0.00 | 0.02 | 0.02 | 93 | 967.9 |
| 20260906045517 | 53 | 23 | 0.0 | 0.0 | 0.00 | 0.02 | 0.02 | 93 | 967.9 |
| 20260906045013 | 53 | 14 | 0.0 | 0.0 | 0.00 | 0.02 | 0.02 | 92 | 967.8 |
| 20260906044508 | 53 | 27 | 0.0 | 0.0 | 0.00 | 0.02 | 0.02 | 93 | 967.8 |
| 20260906044003 | 53 | 10 | 0.0 | 0.0 | 0.00 | 0.02 | 0.02 | 92 | 967.8 |
| 20260906043459 | 53 | 23 | 0.0 | 0.0 | 0.00 | 0.02 | 0.02 | 92 | 967.8 |
| 20260906042955 | 53 | 39 | 0.0 | 0.0 | 0.00 | 0.02 | 0.02 | 93 | 967.6 |
| 20260906042454 | 53 | 21 | 0.9 | 1.7 | 0.00 | 0.02 | 0.02 | 92 | 967.6 |
| 20260906041953 | 53 | 25 | 0.0 | 0.0 | 0.00 | 0.02 | 0.02 | 92 | 967.8 |
| 20260906041450 | 53 | 26 | 0.0 | 0.0 | 0.00 | 0.02 | 0.02 | 92 | 967.8 |
| 20260906040949 | 53 | 18 | 0.0 | 0.0 | 0.00 | 0.02 | 0.02 | 92 | 967.7 |
| 20260906040444 | 53 | 36 | 0.9 | 1.7 | 0.00 | 0.02 | 0.02 | 92 | 967.8 |
| 20260906035940 | 53 | 6 | 0.0 | 0.0 | 0.00 | 0.02 | 0.02 | 92 | 967.7 |
| 20260906035435 | 53 | 28 | 0.0 | 0.0 | 0.00 | 0.02 | 0.02 | 92 | 968.0 |
| 20260906034931 | 53 | 21 | 0.0 | 0.0 | 0.00 | 0.02 | 0.02 | 92 | 967.7 |
| 20260906034425 | 53 | 33 | 0.0 | 0.0 | 0.00 | 0.02 | 0.02 | 92 | 967.8 |
| 20260906033921 | 53 | 27 | 0.0 | 0.0 | 0.00 | 0.02 | 0.02 | 92 | 967.7 |
| 20260906033421 | 53 | 13 | 0.0 | 0.9 | 0.00 | 0.02 | 0.02 | 92 | 967.9 |
| 20260906032917 | 53 | 5 | 0.0 | 0.0 | 0.00 | 0.02 | 0.02 | 92 | 967.9 |
| 20260906032413 | 53 | 21 | 0.0 | 0.0 | 0.00 | 0.02 | 0.02 | 91 | 967.9 |
| 20260906031907 | 54 | 359 | 0.0 | 0.0 | 0.00 | 0.02 | 0.02 | 91 | 967.7 |
| 20260906031402 | 54 | 25 | 0.0 | 0.0 | 0.00 | 0.02 | 0.02 | 91 | 967.8 |
| 20260906030852 | 54 | 24 | 0.0 | 0.0 | 0.00 | 0.02 | 0.02 | 91 | 967.9 |
| 20260906030347 | 54 | 29 | 0.0 | 0.0 | 0.00 | 0.02 | 0.02 | 91 | 967.9 |
| 20260906025846 | 54 | 28 | 0.0 | 0.0 | 0.00 | 0.02 | 0.02 | 91 | 967.7 |
| 20260906025335 | 54 | 34 | 0.0 | 0.0 | 0.00 | 0.02 | 0.02 | 90 | 967.9 |
| 20260906024834 | 54 | 19 | 0.0 | 0.0 | 0.00 | 0.02 | 0.02 | 90 | 967.9 |
| 20260906024333 | 54 | 54 | 0.0 | 0.9 | 0.00 | 0.02 | 0.02 | 90 | 967.9 |
| 20260906023829 | 54 | 29 | 0.0 | 0.0 | 0.00 | 0.02 | 0.02 | 90 | 967.9 |
| 20260906023324 | 54 | 28 | 0.0 | 0.0 | 0.00 | 0.02 | 0.02 | 90 | 967.7 |
| 20260906022819 | 54 | 30 | 0.0 | 0.0 | 0.00 | 0.02 | 0.02 | 90 | 967.7 |
| 20260906022314 | 54 | 25 | 0.0 | 0.0 | 0.00 | 0.02 | 0.02 | 90 | 967.7 |
| 20260906021810 | 54 | 28 | 0.0 | 0.0 | 0.00 | 0.02 | 0.02 | 90 | 967.6 |
| 20260906021309 | 54 | 23 | 0.0 | 0.0 | 0.00 | 0.02 | 0.02 | 90 | 967.6 |
| 20260906020804 | 54 | 23 | 0.0 | 0.0 | 0.00 | 0.02 | 0.02 | 90 | 967.7 |
| 20260906020259 | 54 | 26 | 0.0 | 0.0 | 0.00 | 0.02 | 0.02 | 90 | 967.6 |
| 20260906015758 | 54 | 17 | 0.0 | 0.0 | 0.00 | 0.02 | 0.02 | 89 | 967.6 |
| 20260906015256 | 54 | 352 | 0.0 | 0.0 | 0.00 | 0.02 | 0.02 | 89 | 967.7 |
| 20260906014751 | 54 | 21 | 0.0 | 0.0 | 0.00 | 0.02 | 0.02 | 89 | 967.3 |
| 20260906014247 | 54 | 26 | 0.0 | 0.0 | 0.00 | 0.02 | 0.02 | 89 | 967.5 |
| 20260906013743 | 54 | 26 | 0.0 | 0.0 | 0.00 | 0.02 | 0.02 | 89 | 967.2 |
| 20260906013243 | 54 | 26 | 0.0 | 0.0 | 0.00 | 0.02 | 0.02 | 89 | 967.5 |
| 20260906012738 | 54 | 23 | 0.0 | 0.0 | 0.00 | 0.02 | 0.02 | 89 | 967.6 |
| 20260906012233 | 55 | 26 | 0.0 | 0.0 | 0.00 | 0.02 | 0.02 | 90 | 967.3 |
| 20260906011729 | 55 | 22 | 0.0 | 0.0 | 0.00 | 0.02 | 0.02 | 89 | 967.3 |
| 20260906011223 | 55 | 24 | 0.0 | 0.0 | 0.00 | 0.02 | 0.02 | 89 | 967.3 |
| 20260906010719 | 55 | 10 | 0.0 | 0.0 | 0.00 | 0.02 | 0.02 | 89 | 967.2 |
| 20260906010215 | 55 | 12 | 0.0 | 0.0 | 0.00 | 0.02 | 0.02 | 89 | 967.3 |
| 20260906005714 | 55 | 35 | 0.0 | 0.0 | 0.00 | 0.02 | 0.02 | 88 | 967.3 |
| 20260906005209 | 55 | 11 | 0.0 | 0.0 | 0.00 | 0.02 | 0.02 | 88 | 967.5 |
| 20260906004707 | 55 | 6 | 0.0 | 0.0 | 0.00 | 0.02 | 0.02 | 88 | 967.3 |
| 20260906004202 | 55 | 16 | 0.0 | 0.0 | 0.00 | 0.02 | 0.02 | 88 | 967.3 |
| 20260906003657 | 55 | 13 | 0.0 | 0.0 | 0.00 | 0.02 | 0.02 | 88 | 967.3 |
| 20260906003153 | 55 | 20 | 0.0 | 0.0 | 0.00 | 0.02 | 0.02 | 88 | 967.2 |
| 20260906002648 | 55 | 15 | 0.0 | 0.0 | 0.00 | 0.02 | 0.02 | 88 | 967.3 |
| 20260906002142 | 55 | 20 | 0.0 | 0.0 | 0.00 | 0.02 | 0.02 | 88 | 967.2 |
| 20260906001637 | 55 | 22 | 0.0 | 0.0 | 0.00 | 0.02 | 0.02 | 88 | 967.2 |
| 20260906001132 | 55 | 21 | 0.0 | 0.0 | 0.00 | 0.02 | 0.02 | 87 | 967.2 |
| 20260906000628 | 55 | 22 | 0.0 | 0.0 | 0.00 | 0.02 | 0.02 | 88 | 967.2 |
| 20260906000123 | 55 | 3 | 0.0 | 0.9 | 0.00 | 0.02 | 0.02 | 88 | 967.3 |
| 20260905235622 | 55 | 9 | 0.0 | 0.0 | 0.00 | 0.02 | 0.02 | 88 | 967.2 |
| 20260905235117 | 55 | 24 | 0.9 | 1.7 | 0.00 | 0.02 | 0.02 | 87 | 967.2 |